Flight Track Log - Related Links

Times and Time Zones

All times are in EDT time to prevent confusion due to time zone crossing. See the N1897T flight status page for this flight to view local times or setup timezone preferences in your user account.

Time Position Orientation Groundspeed Altitude Reporting Facility
EDT Latitude Longitude Course Direction KTS MPH feet Rate Location/Type
Tue 11:25:18 AM 26.6239 -81.5922 108° East 114 131 3,000  Level Miami Center
Tue 11:26:18 AM 26.6144 -81.5594 108° East 101 116 3,000  Level Miami Center
Tue 11:27:18 AM 26.6050 -81.5333 112° Southeast 89 102 3,000 50 Level Miami Center
Tue 11:28:18 AM 26.5953 -81.5053 111° Southeast 89 102 3,100  Climbing Miami Center
Tue 11:29:18 AM 26.5878 -81.4792 108° East 89 102 3,000 -50 Descending Miami Center
Tue 11:30:18 AM 26.5803 -81.4511 107° East 89 102 3,000 -100 Level Miami Center
Tue 11:31:18 AM 26.5689 -81.4158 110° East 95 109 2,800 -100 Descending Miami Center
Tue 11:32:18 AM 26.5614 -81.3878 107° East 95 109 2,800 50 Level Miami Center
Tue 11:33:18 AM 26.5497 -81.3594 115° Southeast 95 109 2,900 100 Climbing Miami Center
Tue 11:34:18 AM 26.5422 -81.3314 107° East 90 104 3,000  Climbing Miami Center
Tue 11:35:18 AM 26.5328 -81.3031 110° East 90 104 2,900  Descending Miami Center
Tue 11:36:18 AM 26.5233 -81.2678 107° East 96 110 3,000 50 Climbing Miami Center
Tue 11:37:18 AM 26.5161 -81.2375 105° East 96 110 3,000  Level Miami Center
Tue 11:38:18 AM 26.5086 -81.2069 105° East 102 117 3,000 -50 Level Miami Center
Tue 11:39:18 AM 26.4947 -81.1764 117° Southeast 102 117 2,900 -50 Descending Miami Center
Tue 11:40:18 AM 26.4853 -81.1481 110° East 102 117 2,900 50 Level Miami Center
Tue 11:41:18 AM 26.4778 -81.1200 107° East 102 117 3,000 -50 Climbing Miami Center
Tue 11:42:18 AM 26.4681 -81.0894 110° East 102 117 2,800 -200 Descending Miami Center
Tue 11:43:18 AM 26.4628 -81.0592 101° East 97 112 2,600 50 Descending Miami Center
Tue 11:44:18 AM 26.4553 -81.0333 108° East 91 105 2,900 450 Climbing Miami Center
Tue 11:45:18 AM 26.4456 -81.0053 111° Southeast 91 105 3,500 100 Climbing Miami Center
Tue 11:46:18 AM 26.4358 -80.9769 111° Southeast 91 105 3,100 -200 Descending Miami Center
Tue 11:47:18 AM 26.4264 -80.9467 109° East 91 105 3,100 -50 Level Miami Center
Tue 11:48:18 AM 26.4186 -80.9183 107° East 91 105 3,000 -50 Descending Miami Center
Tue 11:49:18 AM 26.4092 -80.8903 111° Southeast 91 105 3,000  Level Miami Center
Tue 11:50:27 AM 26.3953 -80.8597 117° Southeast 97 112 3,000  Level Miami Center
Tue 11:51:18 AM 26.3939 -80.8319 93° East 91 105 3,000  Level Miami Center
Tue 11:52:18 AM 26.3842 -80.8061 113° Southeast 91 105 3,000  Level Miami Center
Tue 11:53:18 AM 26.3767 -80.7781 107° East 91 105 3,000  Level Miami Center
Tue 11:54:18 AM 26.3669 -80.7475 110° East 91 105 3,000  Level Miami Center
Tue 11:55:18 AM 26.3553 -80.7217 117° Southeast 91 105 3,000  Level Miami Center
Tue 11:56:18 AM 26.3475 -80.6936 107° East 91 105 3,000 50 Level Miami Center
Tue 11:57:18 AM 26.3378 -80.6678 113° Southeast 91 105 3,100 100 Climbing Miami Center
Tue 11:58:18 AM 26.3303 -80.6375 105° East 91 105 3,200 -43 Climbing Miami Center
Tue 11:59:38 AM 26.3186 -80.6022 110° East 95 109 3,000 -85 Descending Miami Center
Tue 12:00:39 PM 26.3111 -80.5719 105° East 100 115 3,000  Level Miami Center
Tue 12:01:41 PM 26.2992 -80.5436 115° Southeast 95 109 3,000  Level Miami Center
Tue 12:02:42 PM 26.2917 -80.5133 105° East 96 110 3,000 -49 Level Miami Center
Tue 12:03:43 PM 26.2839 -80.4875 109° East 97 112 2,900 -52 Descending Miami Center
Tue 12:04:38 PM 26.2761 -80.4619 109° East 97 112 2,900  Level Miami Center
Tue 12:05:45 PM 26.2667 -80.4269 107° East 99 114 2,900  Level Miami Center
Tue 12:06:41 PM 26.2589 -80.4011 109° East 98 113 2,900 -49 Level Miami Center
Tue 12:07:48 PM 26.2492 -80.3708 110° East 98 113 2,800 -281 Descending Miami Center
Tue 12:08:49 PM 26.2394 -80.3333 106° East 110 127 2,300 -488 Descending Miami Center
Tue 12:09:51 PM 26.2361 -80.3031 97° East 102 117 1,800 -488 Descending Miami Center
Tue 12:10:52 PM 26.2306 -80.2706 101° East 105 121 1,300 -443 Descending Miami Center
Tue 12:11:53 PM 26.2231 -80.2381 104° East 114 131 900 -295 Descending Miami Center
Tue 12:12:54 PM 26.2175 -80.2100 102° East 89 102 700 -197 Descending Miami Center
Tue 12:13:55 PM 26.2053 -80.1867 120° Southeast 75 86 500 -197 Descending Miami Center
Tue 12:15:00 PM 26.1973 -80.1707 114° Southeast  Level Estimated
Tue 12:22:00 PM 26.1973 -80.1707 114° Southeast  Level Estimated

Login

Don't have an account? Register now (free) for customized features, flight alerts, and more!